createdAt,value
2023-02-14T00:00:01.116Z,83.91
2023-02-14T00:00:22.964Z,83.77
2023-02-14T00:00:44.855Z,83.72
2023-02-14T00:01:07.761Z,83.73
2023-02-14T00:01:31.199Z,83.78
2023-02-14T00:01:52.893Z,83.69
2023-02-14T00:02:14.546Z,83.75
2023-02-14T00:02:36.431Z,83.83
2023-02-14T00:02:58.475Z,83.82
2023-02-14T00:03:20.106Z,83.74
2023-02-14T00:03:41.787Z,83.69
2023-02-14T00:04:05.672Z,83.82
2023-02-14T00:04:27.268Z,83.84
2023-02-14T00:04:50.597Z,83.82
2023-02-14T00:05:12.945Z,83.73
2023-02-14T00:05:34.698Z,83.86
2023-02-14T00:05:56.582Z,83.79
2023-02-14T00:06:18.398Z,83.70
2023-02-14T00:06:40.041Z,83.73
2023-02-14T00:07:01.854Z,83.83
2023-02-14T00:07:23.726Z,83.80
2023-02-14T00:07:45.349Z,83.77
2023-02-14T00:08:07.125Z,83.88
2023-02-14T00:08:28.970Z,83.83
2023-02-14T00:08:53.451Z,83.80
2023-02-14T00:09:15.708Z,83.89
2023-02-14T00:09:43.122Z,83.81
2023-02-14T00:10:05.989Z,83.91
2023-02-14T00:10:28.023Z,83.82
2023-02-14T00:10:49.806Z,83.82
2023-02-14T00:11:12.096Z,83.93
2023-02-14T00:11:33.987Z,83.82
2023-02-14T00:11:55.773Z,83.88
2023-02-14T00:12:18.211Z,83.85
2023-02-14T00:12:41.538Z,83.84
2023-02-14T00:13:03.894Z,83.94
2023-02-14T00:13:25.994Z,83.84
2023-02-14T00:14:06.186Z,83.85
2023-02-14T00:14:46.779Z,83.78
2023-02-14T00:15:21.555Z,83.81
2023-02-14T00:15:43.419Z,83.84
2023-02-14T00:16:07.999Z,83.83
2023-02-14T00:16:34.675Z,83.88
2023-02-14T00:16:56.357Z,83.99
2023-02-14T00:17:18.084Z,83.95
2023-02-14T00:17:39.931Z,83.84
2023-02-14T00:18:02.940Z,83.97
2023-02-14T00:18:44.767Z,84.04
2023-02-14T00:19:07.785Z,84.08
2023-02-14T00:19:31.303Z,84.15
2023-02-14T00:19:52.827Z,84.02
2023-02-14T00:20:14.563Z,84.02
2023-02-14T00:20:36.452Z,84.02
2023-02-14T00:20:59.641Z,84.04
2023-02-14T00:21:21.759Z,84.12
2023-02-14T00:21:45.064Z,84.02
2023-02-14T00:22:06.875Z,84.00
2023-02-14T00:22:28.551Z,84.13
2023-02-14T00:22:50.230Z,84.04
2023-02-14T00:23:11.807Z,84.03
2023-02-14T00:23:33.390Z,84.08
2023-02-14T00:23:55.887Z,84.03
2023-02-14T00:24:18.617Z,83.97
2023-02-14T00:24:40.283Z,83.98
2023-02-14T00:25:02.161Z,84.09
2023-02-14T00:25:24.054Z,84.06
2023-02-14T00:25:45.830Z,84.03
2023-02-14T00:26:12.361Z,83.98
2023-02-14T00:26:34.517Z,84.06
2023-02-14T00:26:59.684Z,84.09
2023-02-14T00:27:22.283Z,83.99
2023-02-14T00:27:44.695Z,84.05
2023-02-14T00:28:07.500Z,84.02
2023-02-14T00:28:29.746Z,83.99
2023-02-14T00:28:51.776Z,84.04
2023-02-14T00:29:14.629Z,84.04
2023-02-14T00:29:37.971Z,84.10
2023-02-14T00:30:02.561Z,84.04
2023-02-14T00:30:24.760Z,83.99
2023-02-14T00:30:48.307Z,84.04
2023-02-14T00:31:10.566Z,83.98
2023-02-14T00:31:32.883Z,84.10
2023-02-14T00:31:54.873Z,84.04
2023-02-14T00:32:18.250Z,84.08
2023-02-14T00:32:40.043Z,84.07
2023-02-14T00:33:01.725Z,84.17
2023-02-14T00:33:23.611Z,84.08
2023-02-14T00:33:45.331Z,84.15
2023-02-14T00:34:07.083Z,84.10
2023-02-14T00:34:29.271Z,84.09
2023-02-14T00:34:53.616Z,84.16
2023-02-14T00:35:15.916Z,84.05
2023-02-14T00:35:40.246Z,84.03
2023-02-14T00:36:06.293Z,84.10
2023-02-14T00:36:30.764Z,83.87
2023-02-14T00:36:52.859Z,84.00
2023-02-14T00:37:14.854Z,84.12
2023-02-14T00:37:37.312Z,84.27
2023-02-14T00:37:58.869Z,84.09
2023-02-14T00:38:20.622Z,84.06
2023-02-14T00:38:42.726Z,83.96
2023-02-14T00:39:05.313Z,84.16
2023-02-14T00:39:27.100Z,84.13
2023-02-14T00:39:49.184Z,84.05
2023-02-14T00:40:11.714Z,84.14
2023-02-14T00:40:34.597Z,84.05
2023-02-14T00:40:56.629Z,84.16
2023-02-14T00:41:18.975Z,84.14
2023-02-14T00:41:40.979Z,84.13
2023-02-14T00:42:04.047Z,84.09
2023-02-14T00:42:27.052Z,84.14
2023-02-14T00:42:48.921Z,84.19
2023-02-14T00:43:10.667Z,84.11
2023-02-14T00:43:33.888Z,84.10
2023-02-14T00:43:55.583Z,84.28
2023-02-14T00:44:18.683Z,84.31
2023-02-14T00:44:40.470Z,84.35
2023-02-14T00:45:02.168Z,84.37
2023-02-14T00:45:24.803Z,84.31
2023-02-14T00:45:47.574Z,84.46
2023-02-14T00:46:09.368Z,84.49
2023-02-14T00:46:31.851Z,84.51
2023-02-14T00:46:54.647Z,84.42
2023-02-14T00:47:18.683Z,84.45
2023-02-14T00:47:40.474Z,84.60
2023-02-14T00:48:02.151Z,84.55
2023-02-14T00:48:24.138Z,84.54
2023-02-14T00:48:46.236Z,84.58
2023-02-14T00:49:08.017Z,84.49
2023-02-14T00:49:31.165Z,84.44
2023-02-14T00:49:54.141Z,84.57
2023-02-14T00:50:17.263Z,84.48
2023-02-14T00:50:39.855Z,84.49
2023-02-14T00:51:01.823Z,84.54
2023-02-14T00:51:23.632Z,84.41
2023-02-14T00:51:45.282Z,84.52
2023-02-14T00:52:07.552Z,84.46
2023-02-14T00:52:29.906Z,84.57
2023-02-14T00:52:52.813Z,84.59
2023-02-14T00:53:14.499Z,84.57
2023-02-14T00:53:36.690Z,84.58
2023-02-14T00:54:01.262Z,84.64
2023-02-14T00:54:22.929Z,84.48
2023-02-14T00:54:45.519Z,84.61
2023-02-14T00:55:09.161Z,84.52
2023-02-14T00:55:31.160Z,84.62
2023-02-14T00:55:52.873Z,84.65
2023-02-14T00:56:14.754Z,84.57
2023-02-14T00:56:37.872Z,84.69
2023-02-14T00:56:59.666Z,84.60
2023-02-14T00:57:21.413Z,84.80
2023-02-14T00:57:45.098Z,84.77
2023-02-14T00:58:06.963Z,84.71
2023-02-14T00:58:29.950Z,84.72
2023-02-14T00:58:51.817Z,84.83
2023-02-14T00:59:13.684Z,84.90
2023-02-14T00:59:37.121Z,84.93
2023-02-14T00:59:59.197Z,84.88
2023-02-14T01:00:22.312Z,85.05
2023-02-14T01:00:44.333Z,84.82
2023-02-14T01:01:06.495Z,85.07
2023-02-14T01:01:28.642Z,85.00
2023-02-14T01:01:50.490Z,85.11
2023-02-14T01:02:12.412Z,85.16
2023-02-14T01:02:34.651Z,85.19
2023-02-14T01:02:57.362Z,85.11
2023-02-14T01:03:19.082Z,85.18
2023-02-14T01:03:40.941Z,85.16
2023-02-14T01:04:02.983Z,85.23
2023-02-14T01:04:24.923Z,85.21
2023-02-14T01:04:47.840Z,85.16
2023-02-14T01:05:09.828Z,85.29
2023-02-14T01:05:31.773Z,85.24
2023-02-14T01:05:53.756Z,85.32
2023-02-14T01:06:15.579Z,85.38
2023-02-14T01:06:37.410Z,85.31
2023-02-14T01:06:59.258Z,85.32
2023-02-14T01:07:22.145Z,85.28
2023-02-14T01:07:45.781Z,85.38
2023-02-14T01:08:10.387Z,85.33
2023-02-14T01:08:35.024Z,85.35
2023-02-14T01:08:59.113Z,85.41
2023-02-14T01:09:20.978Z,85.41
2023-02-14T01:09:42.884Z,85.39
2023-02-14T01:10:05.516Z,85.52
2023-02-14T01:10:27.675Z,85.47
2023-02-14T01:10:49.781Z,85.55
2023-02-14T01:11:14.019Z,85.53
2023-02-14T01:11:36.041Z,85.51
2023-02-14T01:11:58.476Z,85.41
2023-02-14T01:12:21.221Z,85.66
2023-02-14T01:12:43.202Z,85.50
2023-02-14T01:13:05.318Z,85.56
2023-02-14T01:13:29.124Z,85.59
2023-02-14T01:13:51.248Z,85.69
2023-02-14T01:14:13.500Z,85.43
2023-02-14T01:14:35.346Z,85.63
2023-02-14T01:14:57.054Z,85.70
2023-02-14T01:15:19.172Z,85.69
2023-02-14T01:15:46.650Z,85.70
2023-02-14T01:16:09.619Z,85.85
2023-02-14T01:16:32.186Z,85.76
2023-02-14T01:16:54.295Z,85.87
2023-02-14T01:17:19.531Z,85.84
2023-02-14T01:17:42.643Z,85.93
2023-02-14T01:18:04.662Z,85.88
2023-02-14T01:18:27.345Z,85.89
2023-02-14T01:18:49.293Z,86.01
2023-02-14T01:19:11.646Z,85.83
2023-02-14T01:19:33.673Z,85.96
2023-02-14T01:19:55.914Z,85.93
2023-02-14T01:20:21.075Z,86.03
2023-02-14T01:20:42.970Z,86.05
2023-02-14T01:21:20.031Z,85.99
2023-02-14T01:21:44.213Z,86.11
2023-02-14T01:22:06.005Z,86.09
2023-02-14T01:22:28.159Z,86.16
2023-02-14T01:22:50.288Z,86.22
2023-02-14T01:23:12.373Z,86.28
2023-02-14T01:23:34.283Z,86.25
2023-02-14T01:23:57.049Z,86.23
2023-02-14T01:24:18.965Z,86.25
2023-02-14T01:24:40.712Z,86.27
2023-02-14T01:25:02.505Z,86.36
2023-02-14T01:25:24.963Z,86.35
2023-02-14T01:25:47.148Z,86.43
2023-02-14T01:26:09.727Z,86.24
2023-02-14T01:26:31.931Z,86.48
2023-02-14T01:26:56.177Z,86.44
2023-02-14T01:27:18.011Z,86.47
2023-02-14T01:27:40.052Z,86.46
2023-02-14T01:28:02.513Z,86.53
2023-02-14T01:28:24.895Z,86.63
2023-02-14T01:28:46.815Z,86.61
2023-02-14T01:29:08.601Z,86.67
2023-02-14T01:29:30.551Z,86.62
2023-02-14T01:29:52.438Z,86.70
2023-02-14T01:30:14.500Z,86.69
2023-02-14T01:30:36.567Z,86.80
2023-02-14T01:31:06.709Z,86.78
2023-02-14T01:31:31.559Z,86.77
2023-02-14T01:31:53.484Z,86.79
2023-02-14T01:32:15.291Z,86.81
2023-02-14T01:32:57.930Z,86.80
2023-02-14T01:33:19.581Z,86.90
2023-02-14T01:33:43.631Z,86.84
2023-02-14T01:34:05.465Z,86.84
2023-02-14T01:34:27.146Z,86.93
2023-02-14T01:34:49.343Z,86.97
2023-02-14T01:35:12.598Z,86.92
2023-02-14T01:35:37.141Z,87.11
2023-02-14T01:36:00.257Z,86.96
2023-02-14T01:36:26.278Z,87.02
2023-02-14T01:36:48.026Z,87.10
2023-02-14T01:37:09.708Z,87.10
2023-02-14T01:37:31.454Z,87.18
2023-02-14T01:37:54.282Z,87.14
2023-02-14T01:38:16.081Z,87.11
2023-02-14T01:38:37.760Z,87.15
2023-02-14T01:39:01.724Z,87.26
2023-02-14T01:39:23.617Z,87.22
2023-02-14T01:39:45.465Z,87.04
2023-02-14T01:40:10.216Z,87.20
2023-02-14T01:40:32.985Z,87.34
2023-02-14T01:40:54.711Z,87.31
2023-02-14T01:41:17.457Z,87.44
2023-02-14T01:41:40.832Z,87.29
2023-02-14T01:42:03.269Z,87.41
2023-02-14T01:42:25.658Z,87.44
2023-02-14T01:42:48.149Z,87.50
2023-02-14T01:43:14.311Z,87.43
2023-02-14T01:43:51.034Z,87.37
2023-02-14T01:44:16.353Z,87.47
2023-02-14T01:44:38.036Z,87.51
2023-02-14T01:45:02.512Z,87.69
2023-02-14T01:45:27.760Z,87.40
2023-02-14T01:45:49.603Z,87.64
2023-02-14T01:46:11.448Z,87.82
2023-02-14T01:46:35.389Z,87.76
2023-02-14T01:46:57.074Z,87.86
2023-02-14T01:47:18.952Z,87.87
2023-02-14T01:47:43.089Z,87.75
2023-02-14T01:48:04.887Z,87.89
2023-02-14T01:48:27.986Z,87.75
2023-02-14T01:48:50.079Z,87.90
2023-02-14T01:49:17.897Z,88.05
2023-02-14T01:49:40.957Z,87.88
2023-02-14T01:50:09.867Z,87.86
2023-02-14T01:50:37.776Z,87.97
2023-02-14T01:51:00.208Z,88.01
2023-02-14T01:51:22.060Z,88.01
2023-02-14T01:51:48.173Z,87.97
2023-02-14T01:52:11.459Z,88.01
2023-02-14T01:52:43.981Z,88.02
2023-02-14T01:53:09.349Z,88.13
2023-02-14T01:53:32.257Z,88.08
2023-02-14T01:53:53.833Z,88.12
2023-02-14T01:54:16.144Z,88.19
2023-02-14T01:54:55.442Z,88.13
2023-02-14T01:55:19.037Z,88.07
2023-02-14T01:55:41.972Z,88.08
2023-02-14T01:56:09.232Z,88.22
2023-02-14T01:56:33.999Z,88.33
2023-02-14T01:56:59.772Z,88.25
2023-02-14T01:57:21.756Z,88.33
2023-02-14T01:57:44.771Z,88.28
2023-02-14T01:58:08.806Z,88.35
2023-02-14T01:58:31.412Z,88.28
2023-02-14T01:58:53.810Z,88.38
2023-02-14T01:59:16.618Z,88.29
2023-02-14T01:59:40.752Z,88.44
2023-02-14T02:00:21.967Z,88.37
2023-02-14T02:00:59.538Z,88.44
2023-02-14T02:01:22.380Z,88.37
2023-02-14T02:01:44.605Z,88.44
2023-02-14T02:02:06.304Z,88.36
2023-02-14T02:02:31.366Z,88.53
2023-02-14T02:02:55.553Z,88.55
2023-02-14T02:03:17.271Z,88.47
2023-02-14T02:03:40.993Z,88.54
2023-02-14T02:04:13.511Z,88.54
2023-02-14T02:04:37.550Z,88.62
2023-02-14T02:04:59.236Z,88.50
2023-02-14T02:05:23.267Z,88.44
2023-02-14T02:05:46.911Z,88.62
2023-02-14T02:06:16.246Z,88.81
2023-02-14T02:06:48.465Z,88.59
2023-02-14T02:07:11.717Z,88.55
2023-02-14T02:07:33.359Z,88.68
2023-02-14T02:07:56.078Z,88.65
2023-02-14T02:08:17.741Z,88.48
2023-02-14T02:08:42.704Z,88.69
2023-02-14T02:09:06.840Z,88.67
2023-02-14T02:09:40.891Z,88.70
2023-02-14T02:10:04.290Z,88.68
2023-02-14T02:10:26.151Z,88.64
2023-02-14T02:10:48.708Z,88.76
2023-02-14T02:11:10.493Z,88.82
2023-02-14T02:11:32.378Z,88.79
2023-02-14T02:11:58.288Z,88.81
2023-02-14T02:12:25.100Z,88.86
2023-02-14T02:12:47.603Z,88.88
2023-02-14T02:13:14.266Z,88.85
2023-02-14T02:13:36.028Z,88.86
2023-02-14T02:13:57.826Z,88.88
2023-02-14T02:14:20.200Z,88.98
2023-02-14T02:14:42.407Z,88.99
2023-02-14T02:15:05.414Z,88.87
2023-02-14T02:15:27.090Z,89.01
2023-02-14T02:16:27.518Z,88.95
2023-02-14T02:16:55.423Z,89.19
2023-02-14T02:17:26.056Z,88.99
2023-02-14T02:17:54.475Z,88.98
2023-02-14T02:18:40.402Z,88.94
2023-02-14T02:19:03.131Z,88.96
2023-02-14T02:19:36.877Z,88.98
2023-02-14T02:19:59.097Z,89.06
2023-02-14T02:20:24.923Z,89.11
2023-02-14T02:20:52.843Z,89.06
2023-02-14T02:21:21.076Z,89.03
2023-02-14T02:21:45.936Z,89.18
2023-02-14T02:22:13.715Z,89.02
2023-02-14T02:22:41.457Z,89.16
2023-02-14T02:23:12.448Z,89.18
2023-02-14T02:23:34.539Z,89.03
2023-02-14T02:23:58.065Z,89.19
2023-02-14T02:24:25.797Z,89.12
2023-02-14T02:25:01.777Z,89.01
2023-02-14T02:25:36.346Z,89.14
2023-02-14T02:26:16.446Z,89.17
2023-02-14T02:26:44.052Z,89.02
2023-02-14T02:27:10.175Z,89.19
2023-02-14T02:27:44.112Z,89.18
2023-02-14T02:28:05.771Z,89.21
2023-02-14T02:28:46.274Z,89.33
2023-02-14T02:29:26.783Z,89.14
2023-02-14T02:30:08.393Z,89.32
2023-02-14T02:30:48.999Z,89.43
2023-02-14T02:31:26.239Z,89.44
2023-02-14T02:31:48.317Z,89.41
2023-02-14T02:32:19.318Z,89.52
2023-02-14T02:32:44.264Z,89.44
2023-02-14T02:33:06.454Z,89.38
2023-02-14T02:33:47.125Z,89.49
2023-02-14T02:34:08.742Z,89.51
2023-02-14T02:34:49.650Z,89.60
2023-02-14T02:35:11.639Z,89.51
2023-02-14T02:35:34.768Z,89.43
2023-02-14T02:36:11.781Z,89.54
2023-02-14T02:36:53.209Z,89.65
2023-02-14T02:37:23.886Z,89.52
2023-02-14T02:37:54.462Z,89.59
2023-02-14T02:38:39.546Z,89.64
2023-02-14T02:39:04.518Z,89.60
2023-02-14T02:39:29.588Z,89.45
2023-02-14T02:39:54.021Z,89.56
2023-02-14T02:40:31.558Z,89.52
2023-02-14T02:41:05.816Z,89.63
2023-02-14T02:41:42.841Z,89.57
2023-02-14T02:42:04.524Z,89.52
2023-02-14T02:42:26.419Z,89.49
2023-02-14T02:42:50.432Z,89.56
2023-02-14T02:43:17.148Z,89.56
2023-02-14T02:43:50.891Z,89.61
2023-02-14T02:44:28.606Z,89.57
2023-02-14T02:44:56.138Z,89.55
2023-02-14T02:45:28.459Z,89.72
2023-02-14T02:46:15.003Z,89.78
2023-02-14T02:46:48.244Z,89.78
2023-02-14T02:47:12.878Z,89.94
2023-02-14T02:47:42.337Z,90.00
2023-02-14T02:48:04.225Z,89.98
2023-02-14T02:48:26.109Z,89.86
2023-02-14T02:49:07.020Z,89.78
2023-02-14T02:49:50.953Z,89.80
2023-02-14T02:50:51.646Z,89.86
2023-02-14T02:51:35.724Z,89.74
2023-02-14T02:52:20.128Z,89.78
2023-02-14T02:53:00.615Z,89.74
2023-02-14T02:53:41.316Z,89.77
2023-02-14T02:54:04.224Z,89.57
2023-02-14T02:54:41.557Z,89.72
2023-02-14T02:55:06.003Z,89.67
2023-02-14T02:56:15.754Z,89.80
2023-02-14T02:56:45.104Z,89.90
2023-02-14T02:57:09.036Z,89.63
2023-02-14T02:57:35.216Z,89.95
2023-02-14T02:57:57.716Z,89.86
2023-02-14T02:58:19.297Z,89.81
2023-02-14T02:58:42.655Z,89.76
2023-02-14T02:59:20.154Z,89.74
2023-02-14T02:59:47.157Z,89.84
2023-02-14T03:00:09.595Z,89.82
2023-02-14T03:00:31.716Z,89.98
2023-02-14T03:00:53.668Z,89.81
2023-02-14T03:01:23.302Z,89.81
2023-02-14T03:01:47.680Z,89.90
2023-02-14T03:02:20.360Z,89.91
2023-02-14T03:03:04.166Z,89.87
2023-02-14T03:03:45.247Z,89.89
2023-02-14T03:04:25.933Z,89.95
2023-02-14T03:04:55.368Z,90.00
2023-02-14T03:05:20.106Z,90.08
2023-02-14T03:05:41.942Z,89.98
2023-02-14T03:06:04.035Z,90.10
2023-02-14T03:06:25.862Z,89.99
2023-02-14T03:06:47.604Z,89.89
2023-02-14T03:07:32.091Z,90.04
2023-02-14T03:07:57.967Z,89.96
2023-02-14T03:08:19.997Z,90.02
2023-02-14T03:08:42.390Z,90.09
2023-02-14T03:09:19.838Z,89.95
2023-02-14T03:09:41.878Z,90.02
2023-02-14T03:10:13.897Z,89.93
2023-02-14T03:10:37.216Z,89.95
2023-02-14T03:10:59.799Z,89.92
2023-02-14T03:11:22.282Z,89.97
2023-02-14T03:12:02.710Z,89.98
2023-02-14T03:12:29.520Z,89.97
2023-02-14T03:13:10.008Z,89.95
2023-02-14T03:13:44.065Z,89.87
2023-02-14T03:14:07.894Z,89.92
2023-02-14T03:14:40.213Z,89.85
2023-02-14T03:15:02.520Z,89.97
2023-02-14T03:15:29.280Z,90.02
2023-02-14T03:15:56.884Z,90.16
2023-02-14T03:16:21.323Z,90.03
2023-02-14T03:16:42.850Z,90.07
2023-02-14T03:17:21.705Z,90.02
2023-02-14T03:18:02.104Z,90.05
2023-02-14T03:18:42.915Z,90.09
2023-02-14T03:19:23.415Z,90.04
2023-02-14T03:20:17.529Z,90.12
2023-02-14T03:20:39.321Z,90.16
2023-02-14T03:21:07.839Z,90.14
2023-02-14T03:21:33.624Z,90.16
2023-02-14T03:22:00.613Z,90.09
2023-02-14T03:22:54.709Z,90.09
2023-02-14T03:23:16.498Z,90.18
2023-02-14T03:23:38.802Z,90.11
2023-02-14T03:24:06.201Z,90.07
2023-02-14T03:24:37.006Z,90.11
2023-02-14T03:25:24.031Z,90.08
2023-02-14T03:25:51.749Z,90.19
2023-02-14T03:26:17.126Z,90.18
2023-02-14T03:26:43.294Z,90.09
2023-02-14T03:27:15.102Z,90.15
2023-02-14T03:28:03.355Z,90.16
2023-02-14T03:28:44.329Z,90.30
2023-02-14T03:29:13.433Z,90.22
2023-02-14T03:29:51.183Z,90.29
2023-02-14T03:30:24.587Z,90.41
2023-02-14T03:31:06.891Z,90.34
2023-02-14T03:31:38.037Z,90.41
2023-02-14T03:32:07.070Z,90.50
2023-02-14T03:32:35.970Z,90.53
2023-02-14T03:32:59.381Z,90.46
2023-02-14T03:33:30.040Z,90.49
2023-02-14T03:33:58.717Z,90.55
2023-02-14T03:34:20.564Z,90.55
2023-02-14T03:35:03.228Z,90.79
2023-02-14T03:35:30.826Z,90.57
2023-02-14T03:36:06.457Z,90.47
2023-02-14T03:36:31.888Z,90.52
2023-02-14T03:36:58.794Z,90.49
2023-02-14T03:37:22.773Z,90.44
2023-02-14T03:37:48.819Z,90.43
2023-02-14T03:38:11.193Z,90.43
2023-02-14T03:38:38.103Z,90.62
2023-02-14T03:39:18.282Z,90.66
2023-02-14T03:39:43.342Z,90.68
2023-02-14T03:40:08.230Z,90.62
2023-02-14T03:40:37.648Z,90.64
2023-02-14T03:41:07.110Z,90.60
2023-02-14T03:41:30.747Z,90.67
2023-02-14T03:42:13.078Z,90.54
2023-02-14T03:42:55.839Z,90.63
2023-02-14T03:43:28.148Z,90.63
2023-02-14T03:43:51.971Z,90.64
2023-02-14T03:44:13.592Z,90.68
2023-02-14T03:44:35.275Z,90.69
2023-02-14T03:44:57.905Z,90.71
2023-02-14T03:45:21.990Z,90.78
2023-02-14T03:45:50.957Z,90.79
2023-02-14T03:46:15.610Z,90.80
2023-02-14T03:46:49.632Z,90.79
2023-02-14T03:47:12.327Z,90.89
2023-02-14T03:47:33.963Z,91.01
2023-02-14T03:47:56.817Z,91.01
2023-02-14T03:48:18.384Z,90.86
2023-02-14T03:48:44.679Z,90.83
2023-02-14T03:49:08.672Z,90.96
2023-02-14T03:49:31.726Z,91.04
2023-02-14T03:49:55.761Z,90.95
2023-02-14T03:50:18.693Z,90.93
2023-02-14T03:50:40.867Z,90.92
2023-02-14T03:51:02.755Z,90.98
2023-02-14T03:51:24.678Z,90.94
2023-02-14T03:51:47.561Z,90.99
2023-02-14T03:52:09.677Z,91.07
2023-02-14T03:52:31.532Z,90.92
2023-02-14T03:52:53.364Z,90.91
2023-02-14T03:53:16.629Z,90.87
2023-02-14T03:53:39.474Z,91.00
2023-02-14T03:54:02.288Z,91.01
2023-02-14T03:54:24.405Z,91.15
2023-02-14T03:54:48.481Z,91.07
2023-02-14T03:55:10.158Z,91.12
2023-02-14T03:55:34.393Z,91.02
2023-02-14T03:55:56.089Z,91.09
2023-02-14T03:56:21.599Z,91.20
2023-02-14T03:56:47.826Z,91.12
2023-02-14T03:57:09.702Z,91.19
2023-02-14T03:57:31.320Z,91.17
2023-02-14T03:57:58.206Z,91.20
2023-02-14T03:58:24.371Z,91.16
2023-02-14T03:58:47.383Z,91.16
2023-02-14T03:59:11.933Z,91.26
2023-02-14T03:59:34.682Z,91.19
2023-02-14T03:59:56.521Z,91.41
2023-02-14T04:00:18.526Z,91.26
2023-02-14T04:00:40.712Z,91.27
2023-02-14T04:01:03.864Z,91.27
2023-02-14T04:01:30.214Z,91.19
2023-02-14T04:02:06.309Z,91.32
2023-02-14T04:02:35.970Z,91.11
2023-02-14T04:02:59.285Z,91.36
2023-02-14T04:03:21.181Z,91.38
2023-02-14T04:03:43.123Z,91.42
2023-02-14T04:04:07.711Z,91.41
2023-02-14T04:04:30.518Z,91.52
2023-02-14T04:04:53.222Z,91.45
2023-02-14T04:05:16.470Z,91.56
2023-02-14T04:05:42.930Z,91.47
2023-02-14T04:06:04.913Z,91.44
2023-02-14T04:06:27.009Z,91.49
2023-02-14T04:06:49.204Z,91.43
2023-02-14T04:07:11.398Z,91.60
2023-02-14T04:07:33.585Z,91.48
2023-02-14T04:07:55.982Z,91.47
2023-02-14T04:08:24.924Z,91.52
2023-02-14T04:08:46.724Z,91.52
2023-02-14T04:09:08.395Z,91.57
2023-02-14T04:09:35.758Z,91.49
2023-02-14T04:10:00.659Z,91.65
2023-02-14T04:10:22.355Z,91.75
2023-02-14T04:10:44.325Z,91.60
2023-02-14T04:11:06.518Z,91.59
2023-02-14T04:11:28.714Z,91.63
2023-02-14T04:11:50.719Z,91.65
2023-02-14T04:12:12.896Z,91.48
2023-02-14T04:12:38.335Z,91.70
2023-02-14T04:13:00.467Z,91.63
2023-02-14T04:13:22.238Z,91.74
2023-02-14T04:13:44.125Z,91.72
2023-02-14T04:14:06.217Z,91.79
2023-02-14T04:14:29.739Z,91.68
2023-02-14T04:14:51.524Z,91.80
2023-02-14T04:15:17.714Z,91.70
2023-02-14T04:15:43.488Z,91.78
2023-02-14T04:16:05.825Z,91.83
2023-02-14T04:16:27.595Z,91.88
2023-02-14T04:17:12.456Z,91.76
2023-02-14T04:17:52.658Z,91.78
2023-02-14T04:18:33.154Z,91.70
2023-02-14T04:19:13.504Z,92.00
2023-02-14T04:19:35.646Z,91.83
2023-02-14T04:19:57.736Z,91.89
2023-02-14T04:20:19.527Z,91.81
2023-02-14T04:20:41.252Z,91.74
2023-02-14T04:21:05.744Z,91.85
2023-02-14T04:21:27.431Z,91.85
2023-02-14T04:21:50.482Z,91.81
2023-02-14T04:22:12.225Z,91.84
2023-02-14T04:22:34.625Z,91.64
2023-02-14T04:22:57.124Z,91.91
2023-02-14T04:23:18.842Z,91.88
2023-02-14T04:23:41.100Z,91.88
2023-02-14T04:24:03.026Z,91.86
2023-02-14T04:24:24.774Z,91.87
2023-02-14T04:24:46.358Z,91.75
2023-02-14T04:25:07.977Z,91.86
2023-02-14T04:25:29.922Z,91.91
2023-02-14T04:25:52.218Z,91.93
2023-02-14T04:26:14.630Z,91.96
2023-02-14T04:26:37.934Z,92.06
2023-02-14T04:27:12.022Z,91.84
2023-02-14T04:27:34.387Z,91.97
2023-02-14T04:27:56.007Z,92.05
2023-02-14T04:28:17.650Z,92.02
2023-02-14T04:28:39.434Z,92.00
2023-02-14T04:29:01.602Z,91.95
2023-02-14T04:29:23.514Z,92.01
2023-02-14T04:29:46.528Z,92.02
2023-02-14T04:30:08.479Z,92.08
2023-02-14T04:30:30.397Z,91.98
2023-02-14T04:30:52.330Z,91.98
2023-02-14T04:31:14.242Z,91.87
2023-02-14T04:31:37.894Z,92.12
2023-02-14T04:32:00.745Z,92.09
2023-02-14T04:32:22.554Z,92.21
2023-02-14T04:32:45.612Z,92.21
2023-02-14T04:33:10.336Z,92.23
2023-02-14T04:33:33.378Z,92.14
2023-02-14T04:33:54.998Z,92.23
2023-02-14T04:34:16.741Z,92.11
2023-02-14T04:34:38.422Z,92.11
2023-02-14T04:34:59.998Z,92.14
2023-02-14T04:35:21.784Z,92.17
2023-02-14T04:35:43.680Z,92.22
2023-02-14T04:36:05.659Z,92.26
2023-02-14T04:36:27.236Z,92.22
2023-02-14T04:36:50.250Z,92.21
2023-02-14T04:37:12.548Z,92.26
2023-02-14T04:37:35.560Z,92.18
2023-02-14T04:37:57.648Z,92.29
2023-02-14T04:38:19.432Z,92.14
2023-02-14T04:38:41.147Z,92.30
2023-02-14T04:39:02.975Z,92.28
2023-02-14T04:39:25.503Z,92.37
2023-02-14T04:39:47.497Z,92.32
2023-02-14T04:40:09.895Z,92.34
2023-02-14T04:40:31.805Z,92.37
2023-02-14T04:40:53.661Z,92.38
2023-02-14T04:41:15.411Z,92.56
2023-02-14T04:41:37.028Z,92.40
2023-02-14T04:41:58.607Z,92.51
2023-02-14T04:42:20.494Z,92.55
2023-02-14T04:42:43.710Z,92.57
2023-02-14T04:43:06.926Z,92.57
2023-02-14T04:43:28.715Z,92.59
2023-02-14T04:43:51.348Z,92.67
2023-02-14T04:44:13.302Z,92.65
2023-02-14T04:44:37.486Z,92.72
2023-02-14T04:44:59.227Z,92.77
2023-02-14T04:45:21.008Z,92.67
2023-02-14T04:45:42.694Z,92.65
2023-02-14T04:46:04.514Z,92.65
2023-02-14T04:46:26.457Z,92.61
2023-02-14T04:46:48.386Z,92.60
2023-02-14T04:47:12.447Z,92.58
2023-02-14T04:47:35.093Z,92.55
2023-02-14T04:47:56.908Z,92.56
2023-02-14T04:48:18.965Z,92.55
2023-02-14T04:48:40.858Z,92.60
2023-02-14T04:49:02.662Z,92.46
2023-02-14T04:49:24.733Z,92.63
2023-02-14T04:49:46.334Z,92.60
2023-02-14T04:50:08.414Z,92.46
2023-02-14T04:50:30.603Z,92.45
2023-02-14T04:50:52.992Z,92.46
2023-02-14T04:51:14.880Z,92.49
2023-02-14T04:51:36.392Z,92.55
2023-02-14T04:51:58.349Z,92.62
2023-02-14T04:52:20.131Z,92.60
2023-02-14T04:52:42.898Z,92.68
2023-02-14T04:53:04.551Z,92.67
2023-02-14T04:53:26.538Z,92.66
2023-02-14T04:53:48.393Z,92.65
2023-02-14T04:54:10.181Z,92.84
2023-02-14T04:54:32.491Z,92.69
2023-02-14T04:54:54.358Z,92.75
2023-02-14T04:55:16.143Z,92.76
2023-02-14T04:55:38.236Z,92.75
2023-02-14T04:56:00.122Z,92.78
2023-02-14T04:56:22.110Z,92.82
2023-02-14T04:56:43.895Z,92.79
2023-02-14T04:57:07.143Z,92.69
2023-02-14T04:57:29.206Z,92.74
2023-02-14T04:57:51.193Z,92.68
2023-02-14T04:58:12.810Z,92.69
2023-02-14T04:58:35.315Z,92.73
2023-02-14T04:58:57.157Z,92.78
2023-02-14T04:59:18.841Z,92.76
2023-02-14T04:59:40.421Z,92.64
2023-02-14T05:00:02.775Z,92.56
2023-02-14T05:00:24.896Z,92.51
2023-02-14T05:00:47.606Z,92.64
2023-02-14T05:01:09.308Z,92.71
2023-02-14T05:01:30.978Z,92.60
2023-02-14T05:01:52.869Z,92.72
2023-02-14T05:02:15.142Z,92.57
2023-02-14T05:02:37.163Z,92.62
2023-02-14T05:02:59.140Z,92.65
2023-02-14T05:03:20.927Z,92.53
2023-02-14T05:03:42.502Z,92.82
2023-02-14T05:04:04.392Z,92.66
2023-02-14T05:04:26.282Z,92.65
2023-02-14T05:04:49.827Z,92.51
2023-02-14T05:05:12.020Z,92.64
2023-02-14T05:05:33.778Z,92.49
2023-02-14T05:05:55.561Z,92.64
2023-02-14T05:06:17.177Z,92.73
2023-02-14T05:06:39.036Z,92.70
2023-02-14T05:07:00.908Z,92.67
2023-02-14T05:07:27.915Z,92.74
2023-02-14T05:07:52.671Z,92.68
2023-02-14T05:08:14.319Z,92.72
2023-02-14T05:08:37.086Z,92.72
2023-02-14T05:08:59.145Z,92.75
2023-02-14T05:09:20.910Z,92.89
2023-02-14T05:09:43.024Z,92.72
2023-02-14T05:10:05.212Z,92.70
2023-02-14T05:10:28.633Z,92.62
2023-02-14T05:10:50.620Z,92.75
2023-02-14T05:11:12.157Z,92.89
2023-02-14T05:11:33.884Z,92.77
2023-02-14T05:11:55.615Z,92.78
2023-02-14T05:12:17.452Z,92.82
2023-02-14T05:12:39.032Z,92.82
2023-02-14T05:13:00.919Z,92.93
2023-02-14T05:13:22.911Z,92.83
2023-02-14T05:13:48.528Z,92.77
2023-02-14T05:14:10.983Z,92.76
2023-02-14T05:14:34.194Z,92.90
2023-02-14T05:14:57.342Z,92.76
2023-02-14T05:15:19.194Z,92.84
2023-02-14T05:15:43.949Z,92.84
2023-02-14T05:16:05.847Z,92.81
2023-02-14T05:16:28.055Z,92.81
2023-02-14T05:16:49.649Z,92.90
2023-02-14T05:17:11.277Z,92.85
2023-02-14T05:17:33.378Z,92.77
2023-02-14T05:17:54.960Z,92.79
2023-02-14T05:18:16.746Z,92.72
2023-02-14T05:18:38.942Z,92.86
2023-02-14T05:19:00.540Z,92.75
2023-02-14T05:19:22.608Z,92.79
2023-02-14T05:19:44.801Z,92.80
2023-02-14T05:20:06.793Z,92.83
2023-02-14T05:20:29.195Z,92.79
2023-02-14T05:20:51.279Z,92.83
2023-02-14T05:21:13.272Z,92.75